Time;durP1;ratioP1;P1;durP2;ratioP2;P2;SDS_P1;SDS_P2;PMS_P1;PMS_P2;Temp;Humidity;BMP_temperature;BMP_pressure;BME280_temperature;BME280_humidity;BME280_pressure;Samples;Min_cycle;Max_cycle;Signal;HPM_P1;HPM_P2
2020/12/28 00:00:20;;;;;;;13.97;10.93;;;;;;;;;;4928315;29;20026;-80
2020/12/28 00:02:46;;;;;;;16.63;11.83;;;;;;;;;;4928665;29;20052;-80
2020/12/28 00:05:13;;;;;;;13.90;9.63;;;;;;;;;;4929431;29;20097;-80
2020/12/28 00:07:39;;;;;;;14.87;9.67;;;;;;;;;;4934368;29;20028;-81
2020/12/28 00:10:06;;;;;;;14.73;9.33;;;;;;;;;;4936432;29;20052;-80
2020/12/28 00:12:46;;;;;;;21.93;10.73;;;;;;;;;;4936936;29;20032;-80
2020/12/28 00:15:14;;;;;;;15.83;9.30;;;;;;;;;;4927913;29;20029;-80
2020/12/28 00:17:40;;;;;;;16.43;10.70;;;;;;;;;;4924620;29;20042;-80
2020/12/28 00:20:06;;;;;;;11.83;9.57;;;;;;;;;;4925153;29;20062;-80
2020/12/28 00:22:32;;;;;;;16.50;10.93;;;;;;;;;;4925588;29;20028;-80
2020/12/28 00:24:58;;;;;;;19.80;11.80;;;;;;;;;;4925173;29;20033;-80
2020/12/28 00:27:24;;;;;;;20.30;14.13;;;;;;;;;;4930382;29;20032;-80
2020/12/28 00:29:50;;;;;;;22.93;15.70;;;;;;;;;;4931843;29;20032;-80
2020/12/28 00:32:16;;;;;;;26.17;17.27;;;;;;;;;;4927231;29;20035;-80
2020/12/28 00:34:42;;;;;;;22.97;15.60;;;;;;;;;;4925359;29;20032;-80
2020/12/28 00:37:08;;;;;;;20.63;14.67;;;;;;;;;;4930038;29;20031;-80
2020/12/28 00:39:34;;;;;;;25.67;17.10;;;;;;;;;;4924519;29;20058;-80
2020/12/28 00:42:00;;;;;;;26.03;16.87;;;;;;;;;;4923101;29;20043;-80
2020/12/28 00:44:26;;;;;;;26.73;15.87;;;;;;;;;;4924200;29;20035;-80
2020/12/28 00:46:52;;;;;;;28.17;16.13;;;;;;;;;;4923130;29;20040;-80
2020/12/28 00:49:18;;;;;;;22.27;15.47;;;;;;;;;;4924509;29;20044;-80
2020/12/28 00:51:44;;;;;;;20.23;16.03;;;;;;;;;;4923829;29;20032;-80
2020/12/28 00:54:10;;;;;;;21.60;15.50;;;;;;;;;;4923640;29;20119;-80
2020/12/28 00:56:36;;;;;;;23.77;16.73;;;;;;;;;;4924768;29;20463;-80
2020/12/28 00:59:02;;;;;;;23.80;17.83;;;;;;;;;;4926428;29;20059;-80
2020/12/28 01:01:28;;;;;;;22.67;18.50;;;;;;;;;;4927807;29;20052;-80
2020/12/28 01:03:54;;;;;;;24.60;17.23;;;;;;;;;;4928645;29;20024;-80
2020/12/28 01:06:20;;;;;;;25.47;17.20;;;;;;;;;;4927812;29;20127;-80
2020/12/28 01:08:46;;;;;;;19.73;14.97;;;;;;;;;;4931000;29;20025;-80
2020/12/28 01:11:12;;;;;;;21.77;14.47;;;;;;;;;;4933846;29;20035;-80
2020/12/28 01:13:38;;;;;;;24.20;15.77;;;;;;;;;;4937357;29;20035;-80
2020/12/28 01:16:10;;;;;;;27.57;15.90;;;;;;;;;;4938665;29;20012;-80
2020/12/28 01:18:36;;;;;;;23.17;16.27;;;;;;;;;;4936730;29;20052;-80
2020/12/28 01:21:02;;;;;;;25.37;19.17;;;;;;;;;;4938994;29;20036;-80
2020/12/28 01:23:28;;;;;;;27.03;18.27;;;;;;;;;;4939699;29;20048;-80
2020/12/28 01:25:55;;;;;;;28.57;20.30;;;;;;;;;;4936058;29;20072;-80
2020/12/28 01:28:21;;;;;;;27.63;21.17;;;;;;;;;;4935508;29;20028;-79
2020/12/28 01:30:47;;;;;;;28.60;20.67;;;;;;;;;;4936224;29;20035;-81
2020/12/28 01:33:13;;;;;;;28.17;19.70;;;;;;;;;;4937037;29;20028;-80
2020/12/28 01:35:39;;;;;;;30.43;18.87;;;;;;;;;;4924894;29;20040;-79
2020/12/28 01:38:05;;;;;;;31.87;18.73;;;;;;;;;;4921751;29;20025;-79
2020/12/28 01:40:32;;;;;;;29.83;19.53;;;;;;;;;;4922343;29;20113;-79
2020/12/28 01:42:58;;;;;;;28.57;20.03;;;;;;;;;;4925904;29;20036;-80
2020/12/28 01:45:24;;;;;;;25.53;19.13;;;;;;;;;;4928809;29;20037;-80
2020/12/28 01:47:50;;;;;;;24.43;16.00;;;;;;;;;;4927812;29;20038;-80
2020/12/28 01:50:16;;;;;;;20.13;16.17;;;;;;;;;;4926769;29;20056;-80
2020/12/28 01:52:42;;;;;;;20.57;14.30;;;;;;;;;;4930587;29;20024;-80
2020/12/28 01:55:08;;;;;;;21.07;14.17;;;;;;;;;;4932294;29;20118;-80
2020/12/28 01:57:35;;;;;;;21.40;14.10;;;;;;;;;;4933425;29;20020;-80
2020/12/28 02:00:01;;;;;;;19.23;13.30;;;;;;;;;;4933140;29;20044;-80
2020/12/28 02:02:28;;;;;;;21.37;13.03;;;;;;;;;;4934023;29;20035;-80
2020/12/28 02:04:54;;;;;;;21.23;13.80;;;;;;;;;;4932653;29;20454;-80
2020/12/28 02:07:21;;;;;;;21.63;15.67;;;;;;;;;;4924671;29;20032;-79
2020/12/28 02:09:47;;;;;;;24.73;16.40;;;;;;;;;;4928602;29;20028;-79
2020/12/28 02:12:13;;;;;;;22.43;15.30;;;;;;;;;;4921554;29;20458;-79
2020/12/28 02:14:39;;;;;;;21.33;14.57;;;;;;;;;;4921461;29;20033;-79
2020/12/28 02:17:06;;;;;;;25.23;14.83;;;;;;;;;;4923263;29;20024;-80
2020/12/28 02:19:32;;;;;;;24.33;14.50;;;;;;;;;;4922909;29;20051;-80
2020/12/28 02:21:58;;;;;;;23.23;14.90;;;;;;;;;;4920803;29;20521;-79
2020/12/28 02:24:24;;;;;;;21.80;15.40;;;;;;;;;;4920177;29;20028;-80
2020/12/28 02:26:50;;;;;;;20.50;14.43;;;;;;;;;;4919745;29;20043;-79
2020/12/28 02:29:16;;;;;;;27.03;15.00;;;;;;;;;;4919707;29;20032;-80
2020/12/28 02:31:42;;;;;;;25.10;15.73;;;;;;;;;;4919923;29;20028;-79
2020/12/28 02:34:08;;;;;;;28.53;16.63;;;;;;;;;;4919676;29;20051;-79
2020/12/28 02:36:34;;;;;;;30.27;16.43;;;;;;;;;;4920024;29;20478;-79
2020/12/28 02:39:00;;;;;;;28.70;17.83;;;;;;;;;;4920957;29;20079;-80
2020/12/28 02:41:26;;;;;;;24.63;14.10;;;;;;;;;;4921720;29;20075;-80
2020/12/28 02:43:52;;;;;;;24.73;14.60;;;;;;;;;;4922030;29;20107;-80
2020/12/28 02:46:18;;;;;;;25.37;13.97;;;;;;;;;;4922345;29;20044;-80
2020/12/28 02:48:45;;;;;;;26.83;15.83;;;;;;;;;;4923827;29;20024;-79
2020/12/28 02:51:14;;;;;;;24.17;14.47;;;;;;;;;;4924691;29;20573;-80
2020/12/28 02:53:40;;;;;;;24.33;16.27;;;;;;;;;;4924964;29;20043;-80
2020/12/28 02:56:06;;;;;;;33.77;16.70;;;;;;;;;;4926892;29;20060;-80
2020/12/28 02:58:32;;;;;;;31.23;19.13;;;;;;;;;;4928327;29;20032;-80
2020/12/28 03:00:58;;;;;;;34.67;20.10;;;;;;;;;;4933019;29;20024;-81
2020/12/28 03:03:24;;;;;;;34.57;22.80;;;;;;;;;;4937791;29;20024;-80
2020/12/28 03:05:50;;;;;;;39.63;21.00;;;;;;;;;;4936169;29;20044;-81
2020/12/28 03:08:16;;;;;;;35.83;21.80;;;;;;;;;;4938152;29;20094;-80
2020/12/28 03:10:42;;;;;;;35.80;21.50;;;;;;;;;;4934686;29;20108;-80
2020/12/28 03:13:08;;;;;;;39.87;22.50;;;;;;;;;;4935728;29;20028;-80
2020/12/28 03:15:34;;;;;;;40.27;22.50;;;;;;;;;;4938343;29;20052;-80
2020/12/28 03:18:00;;;;;;;36.20;21.13;;;;;;;;;;4929555;29;20044;-80
2020/12/28 03:20:26;;;;;;;35.13;21.23;;;;;;;;;;4929642;29;20032;-80
2020/12/28 03:22:52;;;;;;;41.60;22.13;;;;;;;;;;4934759;29;20052;-81
2020/12/28 03:25:18;;;;;;;36.90;21.47;;;;;;;;;;4935359;29;20040;-80
2020/12/28 03:27:44;;;;;;;39.37;22.57;;;;;;;;;;4935619;29;20032;-80
2020/12/28 03:30:10;;;;;;;42.00;24.67;;;;;;;;;;4932209;29;20040;-80
2020/12/28 03:32:36;;;;;;;51.03;29.07;;;;;;;;;;4932076;29;20059;-80
2020/12/28 03:35:03;;;;;;;65.17;34.10;;;;;;;;;;4933332;29;20028;-80
2020/12/28 03:37:29;;;;;;;60.67;33.33;;;;;;;;;;4937298;29;20055;-81
2020/12/28 03:39:55;;;;;;;55.63;30.00;;;;;;;;;;4932201;29;20028;-80
2020/12/28 03:42:21;;;;;;;49.03;25.57;;;;;;;;;;4937700;29;20080;-80
2020/12/28 03:44:47;;;;;;;46.30;24.83;;;;;;;;;;4934868;29;20028;-80
2020/12/28 03:47:13;;;;;;;40.00;23.47;;;;;;;;;;4933835;29;20044;-80
2020/12/28 03:49:39;;;;;;;43.50;25.60;;;;;;;;;;4935894;29;20056;-80
2020/12/28 03:52:05;;;;;;;47.90;28.23;;;;;;;;;;4933128;29;20043;-80
2020/12/28 03:54:31;;;;;;;56.43;28.47;;;;;;;;;;4923370;29;20490;-80
2020/12/28 03:56:57;;;;;;;84.87;30.37;;;;;;;;;;4926161;29;20024;-80
2020/12/28 03:59:22;;;;;;;51.13;29.63;;;;;;;;;;4927751;29;20103;-80
2020/12/28 04:01:48;;;;;;;51.83;28.77;;;;;;;;;;4925283;29;20060;-80
2020/12/28 04:04:14;;;;;;;50.13;26.60;;;;;;;;;;4926264;29;20051;-80
2020/12/28 04:06:40;;;;;;;47.63;25.67;;;;;;;;;;4935108;29;20044;-80
2020/12/28 04:09:06;;;;;;;43.87;23.20;;;;;;;;;;4934331;29;20055;-80
2020/12/28 04:11:32;;;;;;;51.97;27.00;;;;;;;;;;4924950;29;20036;-80
2020/12/28 04:13:58;;;;;;;54.07;21.60;;;;;;;;;;4923446;29;20032;-80
2020/12/28 04:16:24;;;;;;;48.53;25.23;;;;;;;;;;4924868;29;20068;-80
2020/12/28 04:18:50;;;;;;;39.60;25.00;;;;;;;;;;4925217;29;20043;-80
2020/12/28 04:21:16;;;;;;;46.13;25.40;;;;;;;;;;4925256;29;20032;-80
2020/12/28 04:23:42;;;;;;;47.47;26.40;;;;;;;;;;4924464;29;20416;-80
2020/12/28 04:26:08;;;;;;;49.63;29.97;;;;;;;;;;4923964;29;20040;-80
2020/12/28 04:28:35;;;;;;;39.90;23.47;;;;;;;;;;4925098;29;20087;-80
2020/12/28 04:31:01;;;;;;;45.20;28.27;;;;;;;;;;4926095;29;20095;-79
2020/12/28 04:33:27;;;;;;;44.23;25.50;;;;;;;;;;4927313;29;20040;-79
2020/12/28 04:35:53;;;;;;;46.10;25.07;;;;;;;;;;4926228;29;20032;-80
2020/12/28 04:38:19;;;;;;;42.90;25.90;;;;;;;;;;4928410;29;20040;-80
2020/12/28 04:40:45;;;;;;;44.60;24.47;;;;;;;;;;4929987;29;20403;-80
2020/12/28 04:43:12;;;;;;;37.83;24.50;;;;;;;;;;4933092;29;20079;-80
2020/12/28 04:45:38;;;;;;;42.37;25.70;;;;;;;;;;4938257;29;20036;-81
2020/12/28 04:48:08;;;;;;;44.53;25.10;;;;;;;;;;4936224;29;20055;-81
2020/12/28 04:50:34;;;;;;;44.50;24.63;;;;;;;;;;4935601;29;20059;-80
2020/12/28 04:53:02;;;;;;;44.90;21.13;;;;;;;;;;4929997;29;20039;-81
2020/12/28 04:55:28;;;;;;;43.17;24.03;;;;;;;;;;4931360;29;20035;-80
2020/12/28 04:57:54;;;;;;;41.23;22.03;;;;;;;;;;4928658;29;20062;-80
2020/12/28 05:00:20;;;;;;;38.40;22.40;;;;;;;;;;4930272;29;20032;-80
2020/12/28 05:02:47;;;;;;;38.77;25.00;;;;;;;;;;4931226;29;20172;-80
2020/12/28 05:05:13;;;;;;;36.43;19.67;;;;;;;;;;4933821;29;20124;-81
2020/12/28 05:07:39;;;;;;;43.13;22.47;;;;;;;;;;4937480;29;20035;-82
2020/12/28 05:10:05;;;;;;;51.43;26.63;;;;;;;;;;4938817;29;20036;-81
2020/12/28 05:12:31;;;;;;;45.80;23.43;;;;;;;;;;4939842;29;20505;-81
2020/12/28 05:15:09;;;;;;;43.37;24.40;;;;;;;;;;4939373;29;20016;-80
2020/12/28 05:17:36;;;;;;;42.27;25.07;;;;;;;;;;4939611;29;20012;-81
2020/12/28 05:20:04;;;;;;;42.93;22.37;;;;;;;;;;4940496;29;20036;-81
2020/12/28 05:22:31;;;;;;;39.17;21.10;;;;;;;;;;4939713;29;20024;-80
2020/12/28 05:24:57;;;;;;;46.87;23.03;;;;;;;;;;4938527;29;20036;-82
2020/12/28 05:27:23;;;;;;;38.70;20.67;;;;;;;;;;4937613;29;20036;-80
2020/12/28 05:29:50;;;;;;;48.13;24.07;;;;;;;;;;4934544;29;20016;-80
2020/12/28 05:32:16;;;;;;;46.37;23.17;;;;;;;;;;4932501;29;20043;-80
2020/12/28 05:34:46;;;;;;;65.67;35.93;;;;;;;;;;4932189;29;20032;-80
2020/12/28 05:37:13;;;;;;;57.07;28.23;;;;;;;;;;4932582;29;20095;-79
2020/12/28 05:39:40;;;;;;;64.43;31.70;;;;;;;;;;4932807;29;20051;-80
2020/12/28 05:42:08;;;;;;;55.17;29.40;;;;;;;;;;4933151;29;20028;-79
2020/12/28 05:44:34;;;;;;;53.90;25.43;;;;;;;;;;4930483;29;20057;-80
2020/12/28 05:47:01;;;;;;;52.40;23.23;;;;;;;;;;4937391;29;20040;-81
2020/12/28 05:49:32;;;;;;;43.87;22.30;;;;;;;;;;4934176;29;20145;-81
2020/12/28 05:51:58;;;;;;;50.77;25.90;;;;;;;;;;4937759;29;20024;-82
2020/12/28 05:54:27;;;;;;;56.70;26.37;;;;;;;;;;4931066;29;20055;-80
2020/12/28 05:56:54;;;;;;;58.03;32.93;;;;;;;;;;4922671;29;20032;-80
2020/12/28 05:59:21;;;;;;;67.07;32.33;;;;;;;;;;4922606;29;20087;-80
2020/12/28 06:01:48;;;;;;;61.10;32.50;;;;;;;;;;4921909;29;20059;-79
2020/12/28 06:04:15;;;;;;;60.00;29.13;;;;;;;;;;4921719;29;20379;-80
2020/12/28 06:06:41;;;;;;;55.37;29.80;;;;;;;;;;4923886;29;20044;-80
2020/12/28 06:09:07;;;;;;;60.63;29.73;;;;;;;;;;4925718;29;20032;-80
2020/12/28 06:11:34;;;;;;;64.43;31.93;;;;;;;;;;4925065;29;20025;-80
2020/12/28 06:14:00;;;;;;;55.37;27.90;;;;;;;;;;4927369;29;20036;-80
2020/12/28 06:16:26;;;;;;;64.37;31.00;;;;;;;;;;4926249;29;20043;-80
2020/12/28 06:18:53;;;;;;;65.27;36.27;;;;;;;;;;4926399;29;20582;-79
2020/12/28 06:21:19;;;;;;;64.53;30.40;;;;;;;;;;4928789;29;20032;-80
2020/12/28 06:23:49;;;;;;;65.10;32.60;;;;;;;;;;4930681;29;20047;-81
2020/12/28 06:26:19;;;;;;;74.60;38.80;;;;;;;;;;4933164;29;20040;-80
2020/12/28 06:28:45;;;;;;;60.40;32.33;;;;;;;;;;4935771;29;20039;-80
2020/12/28 06:31:11;;;;;;;74.30;38.77;;;;;;;;;;4935039;29;20032;-80
2020/12/28 06:33:47;;;;;;;69.87;38.13;;;;;;;;;;4929273;29;20031;-80
2020/12/28 06:36:14;;;;;;;70.90;39.07;;;;;;;;;;4932152;29;20029;-80
2020/12/28 06:38:40;;;;;;;51.53;27.23;;;;;;;;;;4922388;29;20422;-79
2020/12/28 06:41:06;;;;;;;69.40;34.73;;;;;;;;;;4923013;29;20034;-79
2020/12/28 06:43:38;;;;;;;57.80;32.30;;;;;;;;;;4924202;29;20487;-80
2020/12/28 06:46:04;;;;;;;65.90;35.50;;;;;;;;;;4927214;29;20108;-80
2020/12/28 06:48:30;;;;;;;49.33;29.10;;;;;;;;;;4927360;29;20036;-80
2020/12/28 06:51:05;;;;;;;44.53;24.87;;;;;;;;;;4927633;29;20137;-80
2020/12/28 06:53:31;;;;;;;45.53;28.15;;;;;;;;;;4927175;29;20039;-80
2020/12/28 06:56:07;;;;;;;50.57;28.13;;;;;;;;;;4927741;29;20032;-80
2020/12/28 06:58:33;;;;;;;44.53;29.63;;;;;;;;;;4926252;29;20060;-80
2020/12/28 07:00:59;;;;;;;49.50;29.50;;;;;;;;;;4926362;29;20039;-80
2020/12/28 07:03:25;;;;;;;51.10;30.57;;;;;;;;;;4927219;29;20034;-81
2020/12/28 07:05:58;;;;;;;57.07;31.63;;;;;;;;;;4927447;29;20047;-80
2020/12/28 07:08:27;;;;;;;42.67;26.17;;;;;;;;;;4929942;29;20080;-81
2020/12/28 07:11:00;;;;;;;51.57;31.83;;;;;;;;;;4929382;29;20028;-82
2020/12/28 07:13:27;;;;;;;40.13;22.77;;;;;;;;;;4932248;29;20117;-81
2020/12/28 07:16:00;;;;;;;46.17;28.53;;;;;;;;;;4936481;29;20032;-81
2020/12/28 07:18:26;;;;;;;36.40;21.83;;;;;;;;;;4941701;29;20059;-82
2020/12/28 07:20:55;;;;;;;20.17;12.33;;;;;;;;;;4936300;29;20038;-81
2020/12/28 07:23:23;;;;;;;21.73;11.77;;;;;;;;;;4935165;29;20110;-82
2020/12/28 07:25:49;;;;;;;33.60;20.40;;;;;;;;;;4937995;29;20032;-82
2020/12/28 07:28:15;;;;;;;41.80;23.23;;;;;;;;;;4937248;29;20038;-81
2020/12/28 07:30:41;;;;;;;38.60;20.77;;;;;;;;;;4937042;29;20099;-81
2020/12/28 07:33:07;;;;;;;43.57;25.67;;;;;;;;;;4930276;29;20036;-81
2020/12/28 07:35:33;;;;;;;48.30;27.47;;;;;;;;;;4928538;29;20032;-80
2020/12/28 07:38:00;;;;;;;43.43;24.40;;;;;;;;;;4928408;29;20088;-80
2020/12/28 07:40:26;;;;;;;43.30;25.80;;;;;;;;;;4927011;29;20028;-80
2020/12/28 07:42:55;;;;;;;35.83;21.33;;;;;;;;;;4928999;29;20028;-80
2020/12/28 07:45:21;;;;;;;40.13;20.37;;;;;;;;;;4928618;29;20561;-80
2020/12/28 07:47:54;;;;;;;26.63;14.97;;;;;;;;;;4931272;29;20039;-80
2020/12/28 07:50:20;;;;;;;37.53;19.93;;;;;;;;;;4932232;29;20056;-82
2020/12/28 07:52:46;;;;;;;41.13;24.03;;;;;;;;;;4934045;29;20032;-81
2020/12/28 07:55:17;;;;;;;41.83;26.93;;;;;;;;;;4932544;29;20130;-81
2020/12/28 07:57:58;;;;;;;49.27;29.20;;;;;;;;;;4936138;29;20043;-82
2020/12/28 08:00:27;;;;;;;46.17;24.77;;;;;;;;;;4934839;29;20036;-81
2020/12/28 08:02:56;;;;;;;43.27;25.07;;;;;;;;;;4936197;29;20057;-82
2020/12/28 08:05:23;;;;;;;37.77;21.73;;;;;;;;;;4932583;29;20040;-81
2020/12/28 08:07:50;;;;;;;36.20;19.83;;;;;;;;;;4933262;29;20035;-82
2020/12/28 08:10:16;;;;;;;40.53;24.77;;;;;;;;;;4935942;29;20039;-81
2020/12/28 08:12:43;;;;;;;34.50;20.73;;;;;;;;;;4933564;29;20092;-81
2020/12/28 08:15:09;;;;;;;38.10;21.73;;;;;;;;;;4936084;29;20012;-81
2020/12/28 08:17:35;;;;;;;40.27;22.10;;;;;;;;;;4931009;29;20462;-80
2020/12/28 08:20:08;;;;;;;37.90;21.30;;;;;;;;;;4926839;29;20054;-80
2020/12/28 08:22:34;;;;;;;34.87;19.10;;;;;;;;;;4928113;29;20033;-80
2020/12/28 08:25:01;;;;;;;31.30;17.95;;;;;;;;;;4928442;29;20028;-80
2020/12/28 08:27:31;;;;;;;29.87;15.47;;;;;;;;;;4930173;29;20091;-81
2020/12/28 08:29:59;;;;;;;29.00;13.63;;;;;;;;;;4929183;29;20039;-81
2020/12/28 08:32:29;;;;;;;29.60;15.27;;;;;;;;;;4928276;29;20060;-80
2020/12/28 08:34:56;;;;;;;34.27;15.80;;;;;;;;;;4930139;29;20100;-79
2020/12/28 08:37:22;;;;;;;23.20;14.00;;;;;;;;;;4928125;29;20020;-81
2020/12/28 08:39:48;;;;;;;26.90;16.23;;;;;;;;;;4928130;29;20028;-80
2020/12/28 08:42:14;;;;;;;23.23;14.43;;;;;;;;;;4929495;29;20040;-80
2020/12/28 08:44:42;;;;;;;19.70;12.03;;;;;;;;;;4932355;29;20052;-81
2020/12/28 08:47:12;;;;;;;24.20;14.60;;;;;;;;;;4935524;29;20057;-80
2020/12/28 08:49:40;;;;;;;28.10;12.77;;;;;;;;;;4929646;29;20056;-81
2020/12/28 08:52:07;;;;;;;19.50;10.77;;;;;;;;;;4931603;29;20028;-81
2020/12/28 08:54:33;;;;;;;19.43;11.33;;;;;;;;;;4934915;29;20423;-81
2020/12/28 08:56:59;;;;;;;15.60;9.40;;;;;;;;;;4936921;29;20035;-82
2020/12/28 08:59:26;;;;;;;16.37;10.03;;;;;;;;;;4937641;29;20032;-81
2020/12/28 09:01:53;;;;;;;25.10;11.80;;;;;;;;;;4931548;29;20032;-80
2020/12/28 09:04:19;;;;;;;17.90;12.07;;;;;;;;;;4931241;29;20039;-81
2020/12/28 09:06:45;;;;;;;26.03;12.77;;;;;;;;;;4930967;29;20486;-82
2020/12/28 09:09:13;;;;;;;23.27;14.27;;;;;;;;;;4930695;29;20032;-80
2020/12/28 09:11:39;;;;;;;33.77;14.17;;;;;;;;;;4931977;29;20080;-79
2020/12/28 09:14:06;;;;;;;17.30;10.80;;;;;;;;;;4933499;29;20032;-81
2020/12/28 09:16:32;;;;;;;19.53;10.63;;;;;;;;;;4934862;29;20039;-80
2020/12/28 09:18:58;;;;;;;25.40;10.77;;;;;;;;;;4936695;29;20097;-81
2020/12/28 09:21:24;;;;;;;23.33;12.17;;;;;;;;;;4935098;29;20032;-80
2020/12/28 09:23:50;;;;;;;21.60;11.27;;;;;;;;;;4929212;29;20032;-78
2020/12/28 09:26:17;;;;;;;16.67;8.40;;;;;;;;;;4929085;29;20047;-80
2020/12/28 09:28:43;;;;;;;12.63;8.23;;;;;;;;;;4929013;29;20077;-80
2020/12/28 09:31:09;;;;;;;14.17;8.20;;;;;;;;;;4930609;29;20036;-81
2020/12/28 09:33:35;;;;;;;17.73;7.43;;;;;;;;;;4931389;29;20039;-81
2020/12/28 09:36:01;;;;;;;18.53;6.97;;;;;;;;;;4931498;29;20070;-82
2020/12/28 09:38:27;;;;;;;13.77;5.43;;;;;;;;;;4932277;29;20493;-81
2020/12/28 09:40:53;;;;;;;15.67;7.83;;;;;;;;;;4931770;29;20046;-80
2020/12/28 09:43:19;;;;;;;10.80;3.87;;;;;;;;;;4933001;29;20024;-81
2020/12/28 09:45:45;;;;;;;8.60;3.30;;;;;;;;;;4931458;29;20059;-82
2020/12/28 09:48:11;;;;;;;18.17;5.97;;;;;;;;;;4930832;29;20035;-79
2020/12/28 09:50:38;;;;;;;17.20;7.33;;;;;;;;;;4932011;29;20078;-81
2020/12/28 09:53:04;;;;;;;22.03;7.50;;;;;;;;;;4937886;29;20080;-83
2020/12/28 09:55:30;;;;;;;9.23;3.77;;;;;;;;;;4935655;29;20060;-82
2020/12/28 09:57:56;;;;;;;9.63;4.40;;;;;;;;;;4906562;29;20123;-81
2020/12/28 10:00:22;;;;;;;12.43;7.23;;;;;;;;;;4932280;29;20024;-81
2020/12/28 10:02:48;;;;;;;21.33;7.03;;;;;;;;;;4933540;29;20490;-81
2020/12/28 10:05:14;;;;;;;15.70;7.53;;;;;;;;;;4934831;29;20028;-81
2020/12/28 10:07:40;;;;;;;12.87;7.67;;;;;;;;;;4936202;29;20052;-81
2020/12/28 10:10:07;;;;;;;20.87;11.47;;;;;;;;;;4936919;29;20024;-81
2020/12/28 10:12:33;;;;;;;23.33;9.00;;;;;;;;;;4937324;29;20035;-80
2020/12/28 10:14:59;;;;;;;21.83;9.40;;;;;;;;;;4936240;29;20028;-81
2020/12/28 10:17:25;;;;;;;16.67;7.17;;;;;;;;;;4939874;29;20056;-79
2020/12/28 10:19:51;;;;;;;15.60;8.87;;;;;;;;;;4909335;29;20064;-81
2020/12/28 10:22:17;;;;;;;25.20;8.40;;;;;;;;;;4941106;29;20059;-80
2020/12/28 10:24:44;;;;;;;22.53;11.53;;;;;;;;;;4928746;29;20485;-80
2020/12/28 10:27:10;;;;;;;19.27;8.60;;;;;;;;;;4930983;29;20036;-79
2020/12/28 10:29:36;;;;;;;16.83;9.77;;;;;;;;;;4898646;29;20417;-79
2020/12/28 10:32:02;;;;;;;22.13;9.53;;;;;;;;;;4930583;29;20043;-80
2020/12/28 10:34:28;;;;;;;25.53;13.70;;;;;;;;;;4929354;29;20030;-80
2020/12/28 10:36:54;;;;;;;25.13;13.37;;;;;;;;;;4931715;29;20028;-80
2020/12/28 10:39:20;;;;;;;20.63;12.47;;;;;;;;;;4930309;29;20043;-80
2020/12/28 10:41:46;;;;;;;19.27;10.60;;;;;;;;;;4931828;29;20024;-80
2020/12/28 10:44:12;;;;;;;15.63;8.83;;;;;;;;;;4929938;29;20359;-79
2020/12/28 10:46:39;;;;;;;23.60;9.87;;;;;;;;;;4930934;29;20047;-81
2020/12/28 10:49:05;;;;;;;24.57;10.30;;;;;;;;;;4933559;29;20048;-82
2020/12/28 10:51:31;;;;;;;20.97;9.07;;;;;;;;;;4936750;29;20029;-82
2020/12/28 10:53:59;;;;;;;22.07;11.03;;;;;;;;;;4906705;29;20036;-81
2020/12/28 10:56:26;;;;;;;22.63;10.33;;;;;;;;;;4935714;29;20118;-82
2020/12/28 10:58:52;;;;;;;24.87;10.83;;;;;;;;;;4936802;29;20024;-81
2020/12/28 11:01:22;;;;;;;24.87;10.27;;;;;;;;;;4935436;29;20044;-82
2020/12/28 11:03:50;;;;;;;19.60;8.43;;;;;;;;;;4941642;29;20036;-84
2020/12/28 11:06:17;;;;;;;21.43;7.87;;;;;;;;;;4939573;29;20036;-82
2020/12/28 11:08:43;;;;;;;24.17;7.23;;;;;;;;;;4941585;29;20016;-83
2020/12/28 11:11:09;;;;;;;21.87;7.70;;;;;;;;;;4935771;29;20032;-81
2020/12/28 11:13:35;;;;;;;11.80;5.77;;;;;;;;;;4934329;29;20032;-83
2020/12/28 11:16:02;;;;;;;17.23;7.23;;;;;;;;;;4934261;29;20101;-82
2020/12/28 11:18:28;;;;;;;8.47;2.63;;;;;;;;;;4936706;29;20032;-84
2020/12/28 11:20:54;;;;;;;11.93;4.53;;;;;;;;;;4939745;29;20032;-84
2020/12/28 11:23:20;;;;;;;13.83;5.67;;;;;;;;;;4939614;29;20064;-82
2020/12/28 11:25:47;;;;;;;17.50;6.30;;;;;;;;;;4933370;29;20043;-82
2020/12/28 11:28:13;;;;;;;21.87;7.17;;;;;;;;;;4933283;29;20033;-81
2020/12/28 11:30:39;;;;;;;13.27;4.77;;;;;;;;;;4935093;29;20095;-83
2020/12/28 11:33:08;;;;;;;16.87;4.80;;;;;;;;;;4937823;29;20063;-84
2020/12/28 11:35:34;;;;;;;15.30;5.80;;;;;;;;;;4939930;29;20034;-83
2020/12/28 11:38:00;;;;;;;21.47;6.30;;;;;;;;;;4940206;29;20032;-81
2020/12/28 11:40:26;;;;;;;13.93;5.07;;;;;;;;;;4941156;29;20032;-83
2020/12/28 11:42:53;;;;;;;18.40;6.23;;;;;;;;;;4937422;29;20056;-81
2020/12/28 11:45:19;;;;;;;19.70;6.87;;;;;;;;;;4936495;29;20095;-83
2020/12/28 11:47:45;;;;;;;27.80;7.83;;;;;;;;;;4936415;29;20032;-82
2020/12/28 11:50:11;;;;;;;24.00;8.07;;;;;;;;;;4934676;29;20060;-82
2020/12/28 11:52:37;;;;;;;17.03;7.17;;;;;;;;;;4933601;29;20061;-82
2020/12/28 11:55:03;;;;;;;33.23;10.77;;;;;;;;;;4917165;29;20036;-82
2020/12/28 11:57:31;;;;;;;6.87;2.73;;;;;;;;;;4935106;29;20035;-82
2020/12/28 11:59:58;;;;;;;16.43;5.63;;;;;;;;;;4931945;29;20028;-81
2020/12/28 12:02:24;;;;;;;18.93;4.63;;;;;;;;;;4935180;29;20031;-82
2020/12/28 12:04:53;;;;;;;21.33;5.37;;;;;;;;;;4932357;29;20032;-83
2020/12/28 12:07:21;;;;;;;12.97;4.83;;;;;;;;;;4934928;29;20032;-83
2020/12/28 12:09:47;;;;;;;20.63;6.77;;;;;;;;;;4937113;29;20031;-82
2020/12/28 12:12:13;;;;;;;23.40;6.07;;;;;;;;;;4934578;29;20091;-82
2020/12/28 12:14:39;;;;;;;13.90;4.93;;;;;;;;;;4938783;29;20040;-83
2020/12/28 12:17:06;;;;;;;18.77;5.80;;;;;;;;;;4939970;29;20036;-83
2020/12/28 12:19:32;;;;;;;15.83;4.63;;;;;;;;;;4940308;29;20012;-82
2020/12/28 12:21:58;;;;;;;17.27;4.53;;;;;;;;;;4940347;29;20031;-82
2020/12/28 12:24:24;;;;;;;15.07;5.20;;;;;;;;;;4939909;29;20028;-82
2020/12/28 12:26:50;;;;;;;16.27;4.40;;;;;;;;;;4932987;29;20067;-81
2020/12/28 12:29:16;;;;;;;11.77;4.43;;;;;;;;;;4933720;29;20028;-81
2020/12/28 12:31:42;;;;;;;17.57;5.17;;;;;;;;;;4931557;29;20028;-82
2020/12/28 12:34:08;;;;;;;14.13;4.03;;;;;;;;;;4935049;29;20028;-82
2020/12/28 12:36:35;;;;;;;16.90;4.80;;;;;;;;;;4937022;29;20016;-83
2020/12/28 12:39:01;;;;;;;10.17;3.90;;;;;;;;;;4935823;29;20028;-81
2020/12/28 12:41:30;;;;;;;12.30;3.13;;;;;;;;;;4933082;29;20039;-82
2020/12/28 12:43:56;;;;;;;12.10;3.57;;;;;;;;;;4935241;29;20035;-82
2020/12/28 12:46:22;;;;;;;5.10;2.07;;;;;;;;;;4941292;29;20030;-83
2020/12/28 12:48:49;;;;;;;8.50;3.07;;;;;;;;;;4941261;29;20043;-83
2020/12/28 12:51:15;;;;;;;9.20;2.97;;;;;;;;;;4941220;29;20040;-83
2020/12/28 12:53:41;;;;;;;11.23;2.60;;;;;;;;;;4941540;29;20111;-82
2020/12/28 12:56:09;;;;;;;7.87;2.13;;;;;;;;;;4940139;29;20024;-83
2020/12/28 12:58:38;;;;;;;9.13;2.00;;;;;;;;;;4937208;29;20024;-84
2020/12/28 13:01:04;;;;;;;11.20;2.83;;;;;;;;;;4932042;29;20474;-82
2020/12/28 13:03:30;;;;;;;11.97;2.10;;;;;;;;;;4932010;29;20079;-82
2020/12/28 13:05:56;;;;;;;15.27;2.43;;;;;;;;;;4934752;29;20032;-82
2020/12/28 13:08:22;;;;;;;13.40;2.73;;;;;;;;;;4935224;29;20028;-82
2020/12/28 13:10:48;;;;;;;9.03;2.83;;;;;;;;;;4935815;29;20133;-81
2020/12/28 13:13:15;;;;;;;11.50;2.97;;;;;;;;;;4935026;29;20055;-83
2020/12/28 13:15:42;;;;;;;14.97;4.07;;;;;;;;;;4938972;29;20063;-82
2020/12/28 13:18:08;;;;;;;17.10;4.37;;;;;;;;;;4939562;29;20032;-82
2020/12/28 13:20:34;;;;;;;11.10;3.67;;;;;;;;;;4940585;29;20048;-82
2020/12/28 13:23:00;;;;;;;20.43;6.03;;;;;;;;;;4939372;29;20058;-82
2020/12/28 13:25:26;;;;;;;7.27;2.53;;;;;;;;;;4933664;29;20040;-81
2020/12/28 13:27:52;;;;;;;11.63;2.13;;;;;;;;;;4932906;29;20056;-81
2020/12/28 13:30:19;;;;;;;6.13;2.07;;;;;;;;;;4902057;29;20040;-82
2020/12/28 13:32:45;;;;;;;8.87;2.03;;;;;;;;;;4933259;29;20028;-81
2020/12/28 13:35:12;;;;;;;10.20;2.33;;;;;;;;;;4934934;29;20036;-82
2020/12/28 13:37:38;;;;;;;14.47;2.97;;;;;;;;;;4937176;29;20096;-82
2020/12/28 13:40:05;;;;;;;6.50;2.20;;;;;;;;;;4930770;29;20036;-82
2020/12/28 13:42:31;;;;;;;6.83;2.30;;;;;;;;;;4930112;29;20039;-82
2020/12/28 13:44:57;;;;;;;9.87;2.50;;;;;;;;;;4932734;29;20087;-82
2020/12/28 13:47:23;;;;;;;9.37;3.10;;;;;;;;;;4932993;29;20040;-82
2020/12/28 13:49:49;;;;;;;6.93;2.00;;;;;;;;;;4938259;29;20029;-82
2020/12/28 13:52:15;;;;;;;3.43;1.93;;;;;;;;;;4933708;29;20080;-82
2020/12/28 13:54:41;;;;;;;8.70;2.33;;;;;;;;;;4930036;29;20108;-81
2020/12/28 13:57:08;;;;;;;8.23;2.30;;;;;;;;;;4934191;29;20479;-81
2020/12/28 13:59:38;;;;;;;10.63;2.73;;;;;;;;;;4930441;29;20028;-81
2020/12/28 14:02:04;;;;;;;9.17;2.07;;;;;;;;;;4929600;29;20029;-82
2020/12/28 14:04:30;;;;;;;8.13;2.17;;;;;;;;;;4933867;29;20036;-82
2020/12/28 14:06:56;;;;;;;7.23;2.43;;;;;;;;;;4931527;29;20072;-82
2020/12/28 14:09:23;;;;;;;8.47;2.57;;;;;;;;;;4932324;29;20099;-82
2020/12/28 14:11:49;;;;;;;11.73;2.60;;;;;;;;;;4934436;29;20028;-81
2020/12/28 14:14:15;;;;;;;5.80;1.70;;;;;;;;;;4935382;29;20024;-82
2020/12/28 14:16:41;;;;;;;5.93;1.97;;;;;;;;;;4937136;29;20032;-82